»·PEaware :: N172MC KGCN-KGCN

N172MC :: KGCN-KGCN

FLIGHT INFORMATION

Flight Status: Arrived
Operator: Privately registered:
United States
More flights under this callsign
Pilot: Maurice C. (12314)
Aircraft: CESSNA 172 SKYHAWK
(C172)
More flights by this aircraft type
Origin: KGCN Grand Canyon Natl Park
United States
Destination: KGCN Grand Canyon Natl Park
United States
More flights between these airports :: More routes between these airports
Route: +
File this flight plan on PilotEdge
Remarks:
Altitude:
(Current/Filed)
0ft
Speed:
(Current/Filed)
0kts
Departed: 12-Jan-18 10:28 AM
Arrived: 12-Jan-18 11:21 AM
Distance/Time
Traveled:
0nm/0:52
Distance/Time
To Go:
Arrived

Flight Plot

Page will automatically refresh every two minutes.


Map Options




Map Legend


Flown Route
Filed Route
Departure Airport
Arrival Airport
Navaid (VOR, NDB)
Fix

Horizontal Profiles

Position Reports

Time Latitude Longitude Heading Altitude Ground
Speed
12-Jan-18 10:29 35.953576 -112.142824 40 6605ft 0kts
12-Jan-18 10:30 35.954702 -112.142684 42 6605ft 19kts
12-Jan-18 10:31 35.959014 -112.138082 40 6605ft 17kts
12-Jan-18 10:32 35.961044 -112.136258 333 6605ft 0kts
12-Jan-18 10:33 35.961044 -112.136258 334 6605ft 0kts
12-Jan-18 10:34 35.959723 -112.139148 222 6605ft 47kts
12-Jan-18 10:35 35.944250 -112.156353 224 6972ft 86kts
12-Jan-18 10:36 35.945830 -112.183539 299 7407ft 91kts
12-Jan-18 10:37 35.957855 -112.209148 300 8037ft 78kts
12-Jan-18 10:38 35.967077 -112.227500 320 8643ft 53kts
12-Jan-18 10:39 35.977534 -112.247906 297 9025ft 75kts
12-Jan-18 10:40 35.988751 -112.274563 298 9360ft 94kts
12-Jan-18 10:41 36.001661 -112.302922 300 9757ft 95kts
12-Jan-18 10:42 36.014279 -112.328394 302 10120ft 95kts
12-Jan-18 10:43 36.028887 -112.355614 304 10516ft 95kts
12-Jan-18 10:44 36.044077 -112.381707 306 10907ft 94kts
12-Jan-18 10:45 36.060046 -112.406971 308 11302ft 92kts
12-Jan-18 10:46 36.077219 -112.432001 311 11500ft 106kts
12-Jan-18 10:47 36.098684 -112.460328 314 11499ft 116kts
12-Jan-18 10:48 36.120554 -112.486433 317 11499ft 117kts
12-Jan-18 10:49 36.145185 -112.513035 320 11499ft 117kts
12-Jan-18 10:50 36.170874 -112.537962 323 11499ft 117kts
12-Jan-18 10:51 36.197599 -112.561214 325 11499ft 117kts
12-Jan-18 10:52 36.223039 -112.585166 336 11499ft 117kts
12-Jan-18 10:53 36.254910 -112.593303 350 11499ft 118kts
12-Jan-18 10:54 36.279795 -112.572194 58 11499ft 121kts
12-Jan-18 10:55 36.293914 -112.534236 65 11499ft 121kts
12-Jan-18 10:56 36.307427 -112.495776 65 11499ft 121kts
12-Jan-18 10:57 36.321289 -112.457400 63 11499ft 121kts
12-Jan-18 10:58 36.336052 -112.419680 61 11499ft 121kts
12-Jan-18 10:59 36.351225 -112.382024 61 11499ft 121kts
12-Jan-18 11:00 36.366344 -112.344511 61 11499ft 121kts
12-Jan-18 11:01 36.380859 -112.306654 73 11498ft 122kts
12-Jan-18 11:02 36.384800 -112.264580 87 11499ft 123kts
12-Jan-18 11:03 36.384734 -112.222207 91 11499ft 123kts
12-Jan-18 11:04 36.380873 -112.179996 97 11499ft 123kts
12-Jan-18 11:05 36.373308 -112.138582 105 11499ft 123kts
12-Jan-18 11:06 36.354803 -112.100964 147 11130ft 138kts
12-Jan-18 11:07 36.317610 -112.095834 200 10715ft 139kts
12-Jan-18 11:08 36.284694 -112.118339 207 10499ft 129kts
12-Jan-18 11:09 36.253962 -112.137856 207 10499ft 122kts
12-Jan-18 11:10 36.223650 -112.156257 207 10499ft 121kts
12-Jan-18 11:11 36.192723 -112.173223 201 10500ft 122kts
12-Jan-18 11:12 36.160890 -112.187587 201 10500ft 122kts
12-Jan-18 11:13 36.128978 -112.201931 200 10500ft 122kts
12-Jan-18 11:14 36.097151 -112.216190 200 10500ft 122kts
12-Jan-18 11:15 36.065435 -112.230902 202 10499ft 122kts
12-Jan-18 11:16 36.033999 -112.246471 203 10499ft 121kts
12-Jan-18 11:17 36.002469 -112.262787 203 10374ft 130kts
12-Jan-18 11:18 35.977086 -112.292525 279 9848ft 137kts
12-Jan-18 11:19 35.995204 -112.333112 325 9334ft 137kts
12-Jan-18 11:20 36.018519 -112.308399 83 8795ft 134kts
12-Jan-18 11:21 36.005748 -112.266637 120 8289ft 132kts
12-Jan-18 11:22 35.987089 -112.228732 121 7999ft 119kts
12-Jan-18 11:23 35.970471 -112.195028 121 7999ft 113kts
12-Jan-18 11:24 35.948728 -112.190886 225 7691ft 96kts
12-Jan-18 11:25 35.932042 -112.176175 96 7157ft 76kts
12-Jan-18 11:26 35.942996 -112.156729 37 6655ft 65kts
12-Jan-18 11:27 35.947155 -112.151399 128 6605ft 0kts
12-Jan-18 11:28 35.947834 -112.149873 40 6605ft 16kts
12-Jan-18 11:29 35.951832 -112.145677 41 6605ft 16kts
12-Jan-18 11:30 35.953668 -112.143252 127 6605ft 0kts

Navigation Log

Ident Type
1. KGCN Airport
2. KGCN Airport